Norris, TN (37828)

4:25 PM EDT on May 30, 2015 (GMT -0400)
Norris Farms | | Change Station
CLOSE
Current Station
Personal Weather Station
Location: Norris, TN
Elevation: 1073 ft
Nearby Weather Stations

Elev 1073 ft 36.20 °N, 84.06 °W | Updated 34 seconds ago

Partly Cloudy
Partly Cloudy
83.8 °F
Feels Like 85 °F
N
3.0
Wind Variable Wind from SSW
Gusts 4.0 mph

Today
High -- | Low -- °F
--% Chance of Precip.
Yesterday
High -- | Low -- °F
Precip. -- in
6:21 AM 8:46 PM
Waxing Gibbous, 92% visible
Pressure 30.05 in
Visibility 10.0 miles
Clouds Scattered Clouds 6000 ft
Heat Index 85 °F
Dew Point 63 °F
Humidity 50%
Rainfall 0.00 in
Snow Depth Not available.
UV 7 out of 12
Pollen 6.80 out of 12
Air Quality Not available.
Flu Activity Sporadic
METAR KOQT 301953Z AUTO VRB05KT 10SM SCT060 30/14 A3010 RMK AO2 SLP176 T03000144

More Conditions Fewer Conditions

Pressure 30.05 in
Visibility 10.0 miles
Clouds Scattered Clouds 6000 ft
Heat Index 85 °F
Dew Point 63 °F
Humidity 50%
Rainfall 0.00 in
Snow Depth Not available.
UV 7 out of 12
Pollen 6.80 out of 12
Air Quality Not available.
Flu Activity Sporadic
METAR KOQT 301953Z AUTO VRB05KT 10SM SCT060 30/14 A3010 RMK AO2 SLP176 T03000144

More Conditions Fewer Conditions

10-Day Weather Forecast

Almanac

Astronomy

May. 30, 2015 Rise Set
Actual Time
Civil Twilight
Nautical Twilight
Astronomical Twilight
Moon
Length of Visible Light
Length of Day
Tomorrow will be .
, % of the Moon is Illuminated

Today's Extremes

State Highs State Lows

Community

WunderPhotos

Upload Photos

1,825,590 photos uploaded!

WunderBlogs® & News

Nearby

Air Quality

  Air Quality AQ Index Pollutant
Not available.

Snow Depth

Station Depth Elevation

Earthquake Activity

City Distance Mag. Time & Date
Minimum magnitude displayed is 2.5.

Coastal Water Temperatures

Place Temperature

Stations

Nearby Weather Stations

Station Location Temp. Windchill Dew Point Humidity Wind Precip. Elev Updated Type